createdAt,value
2019-02-02T00:02:12.619Z,99647.38
2019-02-02T00:04:43.145Z,99646.23
2019-02-02T00:07:13.449Z,99646.06
2019-02-02T00:09:43.751Z,99646.81
2019-02-02T00:12:14.113Z,99658.23
2019-02-02T00:14:45.303Z,99657.11
2019-02-02T00:17:15.810Z,99654.87
2019-02-02T00:19:46.519Z,99658.13
2019-02-02T00:22:17.042Z,99661.30
2019-02-02T00:24:47.375Z,99660.15
2019-02-02T00:27:17.747Z,99664.22
2019-02-02T00:29:48.044Z,99672.98
2019-02-02T00:32:18.343Z,99676.31
2019-02-02T00:34:48.680Z,99671.97
2019-02-02T00:37:19.437Z,99676.03
2019-02-02T00:39:49.701Z,99672.01
2019-02-02T00:42:20.531Z,99671.37
2019-02-02T00:44:50.947Z,99673.59
2019-02-02T00:47:21.565Z,99672.38
2019-02-02T00:49:52.150Z,99672.80
2019-02-02T00:52:22.504Z,99668.00
2019-02-02T00:54:53.079Z,99663.30
2019-02-02T00:57:23.415Z,99660.53
2019-02-02T00:59:54.002Z,99661.95
2019-02-02T01:02:24.353Z,99658.75
2019-02-02T01:04:54.686Z,99660.55
2019-02-02T01:07:25.167Z,99665.91
2019-02-02T01:09:55.528Z,99665.61
2019-02-02T01:12:25.955Z,99660.51
2019-02-02T01:14:56.339Z,99664.84
2019-02-02T01:17:26.689Z,99663.61
2019-02-02T01:19:57.027Z,99663.41
2019-02-02T01:22:27.299Z,99669.85
2019-02-02T01:24:57.662Z,99671.80
2019-02-02T01:27:28.074Z,99671.08
2019-02-02T01:29:58.351Z,99669.69
2019-02-02T01:32:28.681Z,99662.93
2019-02-02T01:34:58.976Z,99663.39
2019-02-02T01:37:29.260Z,99667.83
2019-02-02T01:39:59.580Z,99664.03
2019-02-02T01:42:29.980Z,99672.23
2019-02-02T01:45:00.249Z,99672.82
2019-02-02T01:47:30.725Z,99677.27
2019-02-02T01:50:01.397Z,99671.50
2019-02-02T01:52:31.748Z,99670.34
2019-02-02T01:55:02.047Z,99669.02
2019-02-02T01:57:32.416Z,99669.45
2019-02-02T02:00:02.751Z,99671.02
2019-02-02T02:02:33.038Z,99671.84
2019-02-02T02:05:05.682Z,99672.78
2019-02-02T02:07:35.960Z,99670.24
2019-02-02T02:10:08.420Z,99669.16
2019-02-02T02:12:38.739Z,99670.97
2019-02-02T02:15:11.617Z,99664.13
2019-02-02T02:17:42.065Z,99659.46
2019-02-02T02:20:13.486Z,99662.86
2019-02-02T02:22:43.869Z,99656.74
2019-02-02T02:25:16.963Z,99662.29
2019-02-02T02:27:47.478Z,99665.95
2019-02-02T02:30:23.033Z,99662.06
2019-02-02T02:32:54.161Z,99664.78
2019-02-02T02:35:24.680Z,99658.83
2019-02-02T02:37:54.967Z,99657.05
2019-02-02T02:40:25.273Z,99653.62
2019-02-02T02:42:55.637Z,99643.70
2019-02-02T02:45:25.935Z,99645.74
2019-02-02T02:47:56.191Z,99642.81
2019-02-02T02:50:26.585Z,99641.39
2019-02-02T02:52:56.794Z,99635.77
2019-02-02T02:55:27.078Z,99638.70
2019-02-02T02:57:57.552Z,99635.69
2019-02-02T03:00:28.340Z,99640.70
2019-02-02T03:02:58.680Z,99645.88
2019-02-02T03:05:29.568Z,99640.38
2019-02-02T03:07:59.893Z,99642.97
2019-02-02T03:10:30.201Z,99644.38
2019-02-02T03:13:00.587Z,99642.39
2019-02-02T03:15:31.186Z,99643.77
2019-02-02T03:18:01.455Z,99644.36
2019-02-02T03:20:31.876Z,99651.70
2019-02-02T03:23:02.468Z,99655.34
2019-02-02T03:25:32.754Z,99655.02
2019-02-02T03:28:03.094Z,99649.78
2019-02-02T03:30:33.418Z,99657.45
2019-02-02T03:33:04.043Z,99655.55
2019-02-02T03:35:34.643Z,99661.63
2019-02-02T03:38:05.151Z,99671.33
2019-02-02T03:40:35.752Z,99678.09
2019-02-02T03:43:06.116Z,99685.53
2019-02-02T03:45:36.390Z,99689.50
2019-02-02T03:48:07.249Z,99680.16
2019-02-02T03:50:37.620Z,99676.59
2019-02-02T03:53:07.939Z,99681.09
2019-02-02T03:55:38.219Z,99672.92
2019-02-02T03:58:08.618Z,99671.70
2019-02-02T04:00:38.965Z,99675.86
2019-02-02T04:03:09.575Z,99685.73
2019-02-02T04:05:39.956Z,99686.44
2019-02-02T04:08:10.265Z,99694.94
2019-02-02T04:10:40.569Z,99700.38
2019-02-02T04:13:11.060Z,99691.19
2019-02-02T04:15:41.414Z,99702.22
2019-02-02T04:18:11.981Z,99709.27
2019-02-02T04:20:42.904Z,99711.88
2019-02-02T04:23:13.187Z,99717.45
2019-02-02T04:25:43.775Z,99708.51
2019-02-02T04:28:14.137Z,99704.75
2019-02-02T04:30:44.842Z,99704.38
2019-02-02T04:33:15.091Z,99702.66
2019-02-02T04:35:45.401Z,99699.83
2019-02-02T04:38:15.723Z,99701.42
2019-02-02T04:40:45.975Z,99700.09
2019-02-02T04:43:16.352Z,99696.22
2019-02-02T04:45:46.688Z,99697.22
2019-02-02T04:48:16.974Z,99693.91
2019-02-02T04:50:47.372Z,99686.36
2019-02-02T04:53:21.195Z,99682.88
2019-02-02T04:55:51.494Z,99680.73
2019-02-02T04:58:21.871Z,99682.17
2019-02-02T05:00:52.573Z,99685.86
2019-02-02T05:03:22.912Z,99686.14
2019-02-02T05:05:53.266Z,99683.59
2019-02-02T05:08:23.585Z,99690.76
2019-02-02T05:10:53.877Z,99690.80
2019-02-02T05:13:24.278Z,99689.00
2019-02-02T05:15:54.559Z,99690.67
2019-02-02T05:18:24.873Z,99686.80
2019-02-02T05:20:55.279Z,99684.10
2019-02-02T05:23:25.572Z,99686.46
2019-02-02T05:25:55.879Z,99691.34
2019-02-02T05:28:26.245Z,99693.28
2019-02-02T05:30:56.539Z,99696.28
2019-02-02T05:33:26.918Z,99699.79
2019-02-02T05:35:57.287Z,99706.56
2019-02-02T05:38:27.595Z,99714.56
2019-02-02T05:40:57.889Z,99718.77
2019-02-02T05:43:28.635Z,99723.75
2019-02-02T05:45:58.895Z,99721.77
2019-02-02T05:48:29.182Z,99732.25
2019-02-02T05:50:59.571Z,99732.73
2019-02-02T05:53:29.981Z,99739.28
2019-02-02T05:56:00.280Z,99734.03
2019-02-02T05:58:30.793Z,99728.19
2019-02-02T06:01:01.206Z,99735.16
2019-02-02T06:03:31.569Z,99735.23
2019-02-02T06:06:02.065Z,99744.69
2019-02-02T06:08:32.484Z,99749.16
2019-02-02T06:11:02.763Z,99749.73
2019-02-02T06:13:33.157Z,99750.42
2019-02-02T06:16:03.436Z,99742.73
2019-02-02T06:18:33.748Z,99757.22
2019-02-02T06:21:04.115Z,99756.56
2019-02-02T06:23:34.445Z,99753.42
2019-02-02T06:26:04.742Z,99763.08
2019-02-02T06:28:35.113Z,99769.69
2019-02-02T06:31:05.506Z,99771.59
2019-02-02T06:33:38.129Z,99766.77
2019-02-02T06:36:08.422Z,99768.80
2019-02-02T06:38:38.768Z,99769.35
2019-02-02T06:41:09.072Z,99774.43
2019-02-02T06:43:39.449Z,99769.84
2019-02-02T06:46:09.755Z,99771.58
2019-02-02T06:48:40.042Z,99769.69
2019-02-02T06:51:10.434Z,99767.38
2019-02-02T06:53:41.011Z,99778.16
2019-02-02T06:56:11.336Z,99781.59
2019-02-02T06:58:41.645Z,99787.34
2019-02-02T07:01:11.951Z,99789.82
2019-02-02T07:03:42.201Z,99793.20
2019-02-02T07:06:12.524Z,99790.98
2019-02-02T07:08:42.873Z,99787.48
2019-02-02T07:11:13.148Z,99795.38
2019-02-02T07:13:43.717Z,99789.43
2019-02-02T07:16:14.053Z,99801.13
2019-02-02T07:18:44.376Z,99813.38
2019-02-02T07:21:14.764Z,99809.80
2019-02-02T07:23:45.082Z,99806.33
2019-02-02T07:26:15.412Z,99810.69
2019-02-02T07:28:45.657Z,99813.91
2019-02-02T07:31:15.960Z,99815.09
2019-02-02T07:33:46.300Z,99818.61
2019-02-02T07:36:16.787Z,99826.48
2019-02-02T07:38:47.099Z,99825.70
2019-02-02T07:41:17.331Z,99835.44
2019-02-02T07:43:47.687Z,99837.98
2019-02-02T07:46:18.216Z,99842.55
2019-02-02T07:48:48.512Z,99845.67
2019-02-02T07:51:18.849Z,99854.94
2019-02-02T07:53:49.115Z,99863.82
2019-02-02T07:56:19.428Z,99871.02
2019-02-02T07:58:49.772Z,99871.72
2019-02-02T08:01:20.060Z,99877.56
2019-02-02T08:03:50.377Z,99883.53
2019-02-02T08:06:20.728Z,99882.75
2019-02-02T08:08:51.064Z,99888.92
2019-02-02T08:11:21.265Z,99891.67
2019-02-02T08:13:51.744Z,99898.62
2019-02-02T08:16:22.024Z,99903.33
2019-02-02T08:18:52.627Z,99900.77
2019-02-02T08:21:22.954Z,99901.61
2019-02-02T08:23:53.227Z,99906.65
2019-02-02T08:26:24.774Z,99909.26
2019-02-02T08:28:55.247Z,99915.50
2019-02-02T08:31:25.502Z,99913.66
2019-02-02T08:33:55.859Z,99913.23
2019-02-02T08:36:26.254Z,99914.47
2019-02-02T08:38:56.513Z,99916.38
2019-02-02T08:41:26.799Z,99923.73
2019-02-02T08:43:57.531Z,99918.88
2019-02-02T08:46:28.016Z,99918.11
2019-02-02T08:48:58.290Z,99917.44
2019-02-02T08:51:28.640Z,99913.24
2019-02-02T08:53:59.489Z,99904.63
2019-02-02T08:56:29.915Z,99903.95
2019-02-02T08:59:00.478Z,99918.61
2019-02-02T09:01:30.796Z,99926.12
2019-02-02T09:04:01.075Z,99928.55
2019-02-02T09:06:38.980Z,99933.55
2019-02-02T09:09:05.485Z,99947.52
2019-02-02T09:11:35.771Z,99953.51
2019-02-02T09:14:06.473Z,99952.02
2019-02-02T09:16:36.769Z,99946.20
2019-02-02T09:19:07.111Z,99946.02
2019-02-02T09:21:37.450Z,99949.73
2019-02-02T09:24:07.725Z,99946.52
2019-02-02T09:26:38.047Z,99952.88
2019-02-02T09:29:10.392Z,99956.97
2019-02-02T09:31:40.728Z,99958.47
2019-02-02T09:34:10.992Z,99957.20
2019-02-02T09:36:41.605Z,99963.59
2019-02-02T09:39:11.883Z,99966.94
2019-02-02T09:41:42.191Z,99966.16
2019-02-02T09:44:12.548Z,99967.84
2019-02-02T09:46:42.848Z,99963.36
2019-02-02T09:49:13.118Z,99962.05
2019-02-02T09:51:43.623Z,99959.02
2019-02-02T09:54:13.886Z,99956.63
2019-02-02T09:56:44.160Z,99957.27
2019-02-02T09:59:14.637Z,99953.89
2019-02-02T10:01:44.936Z,99958.50
2019-02-02T10:04:15.167Z,99963.95
2019-02-02T10:06:45.530Z,99970.69
2019-02-02T10:09:15.803Z,99968.80
2019-02-02T10:11:46.079Z,99969.04
2019-02-02T10:14:16.419Z,99967.53
2019-02-02T10:16:46.705Z,99975.56
2019-02-02T10:19:17.276Z,99979.48
2019-02-02T10:21:49.667Z,99981.25
2019-02-02T10:24:19.663Z,99972.77
2019-02-02T10:26:50.002Z,99983.90
2019-02-02T10:29:20.372Z,99981.05
2019-02-02T10:31:50.641Z,99984.03
2019-02-02T10:34:21.186Z,99986.09
2019-02-02T10:36:51.507Z,99993.20
2019-02-02T10:39:21.759Z,99993.75
2019-02-02T10:41:52.052Z,99990.55
2019-02-02T10:44:22.396Z,99988.48
2019-02-02T10:46:52.999Z,99997.16
2019-02-02T10:49:23.293Z,99984.15
2019-02-02T10:51:53.614Z,99979.89
2019-02-02T10:54:24.168Z,99981.09
2019-02-02T10:56:54.450Z,99980.77
2019-02-02T10:59:25.107Z,99977.47
2019-02-02T11:01:55.424Z,99979.83
2019-02-02T11:04:25.713Z,99985.64
2019-02-02T11:06:56.117Z,99982.61
2019-02-02T11:09:26.446Z,99976.90
2019-02-02T11:11:56.726Z,99980.91
2019-02-02T11:14:27.460Z,99984.88
2019-02-02T11:16:57.909Z,99981.09
2019-02-02T11:19:28.359Z,99970.79
2019-02-02T11:21:58.757Z,99976.56
2019-02-02T11:24:29.059Z,99978.37
2019-02-02T11:27:00.488Z,99975.17
2019-02-02T11:29:30.981Z,99970.55
2019-02-02T11:32:03.208Z,99972.22
2019-02-02T11:34:33.589Z,99971.05
2019-02-02T11:37:04.250Z,99972.20
2019-02-02T11:39:34.897Z,99970.42
2019-02-02T11:42:05.214Z,99976.84
2019-02-02T11:44:35.628Z,99985.59
2019-02-02T11:47:05.897Z,99986.08
2019-02-02T11:49:36.211Z,99990.48
2019-02-02T11:52:06.571Z,99992.27
2019-02-02T11:54:36.942Z,99994.19
2019-02-02T11:57:07.225Z,99989.95
2019-02-02T11:59:37.530Z,99988.63
2019-02-02T12:02:14.546Z,99996.77
2019-02-02T12:04:39.873Z,100001.45
2019-02-02T12:07:10.247Z,100008.56
2019-02-02T12:09:40.598Z,100006.97
2019-02-02T12:12:10.912Z,100008.39
2019-02-02T12:14:41.258Z,100016.16
2019-02-02T12:17:11.519Z,100019.05
2019-02-02T12:19:41.797Z,100011.83
2019-02-02T12:22:12.255Z,100013.91
2019-02-02T12:24:42.518Z,100009.87
2019-02-02T12:27:12.923Z,100021.31
2019-02-02T12:29:43.356Z,100027.95
2019-02-02T12:32:13.692Z,100032.12
2019-02-02T12:34:44.382Z,100035.17
2019-02-02T12:37:14.740Z,100035.80
2019-02-02T12:39:45.346Z,100039.66
2019-02-02T12:42:15.670Z,100038.09
2019-02-02T12:44:46.012Z,100040.16
2019-02-02T12:47:16.313Z,100028.11
2019-02-02T12:49:46.581Z,100029.04
2019-02-02T12:52:16.924Z,100029.53
2019-02-02T12:54:47.278Z,100029.03
2019-02-02T12:57:17.951Z,100030.66
2019-02-02T12:59:48.346Z,100036.94
2019-02-02T13:02:18.611Z,100045.81
2019-02-02T13:04:48.893Z,100044.34
2019-02-02T13:07:19.276Z,100037.72
2019-02-02T13:09:49.864Z,100046.59
2019-02-02T13:12:20.177Z,100039.68
2019-02-02T13:14:50.965Z,100039.66
2019-02-02T13:17:21.296Z,100039.36
2019-02-02T13:19:51.524Z,100038.05
2019-02-02T13:22:21.929Z,100040.94
2019-02-02T13:24:52.474Z,100048.36
2019-02-02T13:27:22.972Z,100041.92
2019-02-02T13:29:53.405Z,100047.22
2019-02-02T13:32:23.701Z,100049.98
2019-02-02T13:34:56.557Z,100054.02
2019-02-02T13:37:26.080Z,100056.73
2019-02-02T13:39:56.397Z,100057.20
2019-02-02T13:42:26.733Z,100059.02
2019-02-02T13:44:57.100Z,100061.89
2019-02-02T13:47:27.362Z,100064.16
2019-02-02T13:49:57.635Z,100065.91
2019-02-02T13:52:28.076Z,100063.34
2019-02-02T13:54:58.445Z,100068.83
2019-02-02T13:57:28.712Z,100073.67
2019-02-02T13:59:59.069Z,100080.41
2019-02-02T14:02:29.383Z,100081.73
2019-02-02T14:04:59.959Z,100089.16
2019-02-02T14:07:30.284Z,100083.66
2019-02-02T14:10:00.506Z,100086.08
2019-02-02T14:12:30.795Z,100080.13
2019-02-02T14:15:01.438Z,100082.86
2019-02-02T14:17:31.735Z,100085.42
2019-02-02T14:20:02.013Z,100096.53
2019-02-02T14:22:32.389Z,100101.83
2019-02-02T14:25:02.692Z,100114.07
2019-02-02T14:27:32.936Z,100120.69
2019-02-02T14:30:03.896Z,100124.41
2019-02-02T14:32:34.138Z,100127.29
2019-02-02T14:35:05.185Z,100137.44
2019-02-02T14:37:35.681Z,100135.66
2019-02-02T14:40:08.139Z,100140.02
2019-02-02T14:42:38.812Z,100140.80
2019-02-02T14:45:12.409Z,100152.11
2019-02-02T14:47:42.671Z,100155.61
2019-02-02T14:50:19.370Z,100162.69
2019-02-02T14:52:50.464Z,100168.17
2019-02-02T14:55:24.311Z,100168.63
2019-02-02T14:57:54.623Z,100165.25
2019-02-02T15:00:27.814Z,100172.95
2019-02-02T15:02:58.088Z,100179.06
2019-02-02T15:05:28.560Z,100183.23
2019-02-02T15:07:58.934Z,100187.25
2019-02-02T15:10:29.169Z,100190.48
2019-02-02T15:12:59.724Z,100189.97
2019-02-02T15:15:30.139Z,100198.52
2019-02-02T15:18:00.456Z,100194.50
2019-02-02T15:20:34.274Z,100200.60
2019-02-02T15:23:04.733Z,100208.32
2019-02-02T15:25:35.026Z,100213.47
2019-02-02T15:28:05.434Z,100209.28
2019-02-02T15:30:36.520Z,100222.71
2019-02-02T15:33:07.377Z,100217.81
2019-02-02T15:35:37.654Z,100219.48
2019-02-02T15:38:09.380Z,100216.07
2019-02-02T15:40:39.660Z,100219.54
2019-02-02T15:43:10.217Z,100220.80
2019-02-02T15:45:40.622Z,100220.11
2019-02-02T15:48:10.831Z,100214.77
2019-02-02T15:50:41.130Z,100218.80
2019-02-02T15:53:11.515Z,100227.68
2019-02-02T15:55:41.880Z,100233.14
2019-02-02T15:58:12.175Z,100228.50
2019-02-02T16:00:42.522Z,100233.94
2019-02-02T16:03:12.796Z,100234.58
2019-02-02T16:05:43.098Z,100235.86
2019-02-02T16:08:17.411Z,100239.06
2019-02-02T16:10:47.696Z,100245.34
2019-02-02T16:13:17.956Z,100250.20
2019-02-02T16:15:48.324Z,100253.26
2019-02-02T16:18:18.884Z,100251.63
2019-02-02T16:20:49.114Z,100252.25
2019-02-02T16:23:19.451Z,100259.48
2019-02-02T16:25:50.721Z,100263.98
2019-02-02T16:28:21.083Z,100269.11
2019-02-02T16:30:51.701Z,100270.75
2019-02-02T16:33:23.328Z,100281.34
2019-02-02T16:35:53.868Z,100284.07
2019-02-02T16:38:24.182Z,100291.02
2019-02-02T16:40:54.428Z,100293.91
2019-02-02T16:43:24.796Z,100290.38
2019-02-02T16:45:55.154Z,100303.05
2019-02-02T16:48:25.462Z,100299.52
2019-02-02T16:50:56.819Z,100308.39
2019-02-02T16:53:27.468Z,100309.50
2019-02-02T16:55:57.789Z,100317.07
2019-02-02T16:58:28.066Z,100324.77
2019-02-02T17:00:58.301Z,100328.33
2019-02-02T17:03:28.597Z,100326.40
2019-02-02T17:05:59.038Z,100333.48
2019-02-02T17:08:29.573Z,100334.27
2019-02-02T17:10:59.819Z,100342.13
2019-02-02T17:13:30.268Z,100342.00
2019-02-02T17:16:00.587Z,100339.38
2019-02-02T17:18:30.968Z,100338.70
2019-02-02T17:21:01.873Z,100350.97
2019-02-02T17:23:33.835Z,100354.98
2019-02-02T17:26:04.838Z,100368.69
2019-02-02T17:28:35.180Z,100374.33
2019-02-02T17:31:05.656Z,100376.39
2019-02-02T17:33:35.970Z,100378.17
2019-02-02T17:36:07.062Z,100383.76
2019-02-02T17:38:37.382Z,100388.44
2019-02-02T17:41:07.699Z,100395.59
2019-02-02T17:43:38.208Z,100399.28
2019-02-02T17:46:08.482Z,100406.23
2019-02-02T17:48:38.754Z,100408.63
2019-02-02T17:51:09.121Z,100415.05
2019-02-02T17:53:39.423Z,100421.00
2019-02-02T17:56:09.711Z,100426.00
2019-02-02T17:58:40.141Z,100423.03
2019-02-02T18:01:10.486Z,100426.72
2019-02-02T18:03:40.703Z,100426.86
2019-02-02T18:06:11.291Z,100430.22
2019-02-02T18:08:41.521Z,100439.55
2019-02-02T18:11:11.785Z,100446.27
2019-02-02T18:13:47.806Z,100455.88
2019-02-02T18:16:18.123Z,100454.62
2019-02-02T18:18:48.374Z,100461.16
2019-02-02T18:21:18.698Z,100455.67
2019-02-02T18:23:49.038Z,100453.55
2019-02-02T18:26:19.408Z,100464.17
2019-02-02T18:28:50.023Z,100467.41
2019-02-02T18:31:20.314Z,100464.48
2019-02-02T18:33:50.615Z,100476.86
2019-02-02T18:36:21.298Z,100475.55
2019-02-02T18:38:51.856Z,100485.89
2019-02-02T18:41:22.489Z,100478.24
2019-02-02T18:43:52.821Z,100487.58
2019-02-02T18:46:23.174Z,100494.54
2019-02-02T18:48:53.797Z,100495.89
2019-02-02T18:51:24.509Z,100493.00
2019-02-02T18:53:54.788Z,100491.19
2019-02-02T18:56:25.095Z,100498.39
2019-02-02T18:58:55.857Z,100499.20
2019-02-02T19:01:26.162Z,100505.33
2019-02-02T19:03:56.430Z,100513.48
2019-02-02T19:09:10.518Z,100514.58
2019-02-02T19:11:40.782Z,100512.48
2019-02-02T19:14:11.064Z,100514.40
2019-02-02T19:16:41.609Z,100519.20
2019-02-02T19:19:11.935Z,100523.89
2019-02-02T19:21:42.223Z,100518.55
2019-02-02T19:24:12.737Z,100520.52
2019-02-02T19:26:43.027Z,100523.22
2019-02-02T19:29:13.350Z,100531.59
2019-02-02T19:31:43.642Z,100531.75
2019-02-02T19:34:13.890Z,100534.33
2019-02-02T19:36:44.238Z,100528.19
2019-02-02T19:39:14.871Z,100538.69
2019-02-02T19:41:45.158Z,100541.40
2019-02-02T19:44:15.339Z,100543.67
2019-02-02T19:46:45.710Z,100551.37
2019-02-02T19:49:15.990Z,100556.98
2019-02-02T19:51:46.231Z,100562.95
2019-02-02T19:54:16.665Z,100567.50
2019-02-02T19:56:46.972Z,100566.67
2019-02-02T19:59:17.260Z,100566.67
2019-02-02T20:01:47.602Z,100567.97
2019-02-02T20:04:19.002Z,100572.79
2019-02-02T20:06:49.300Z,100579.39
2019-02-02T20:09:19.628Z,100580.05
2019-02-02T20:11:49.971Z,100580.94
2019-02-02T20:14:20.510Z,100590.13
2019-02-02T20:16:50.847Z,100589.65
2019-02-02T20:19:21.380Z,100596.41
2019-02-02T20:21:51.692Z,100601.55
2019-02-02T20:24:21.978Z,100603.30
2019-02-02T20:26:52.206Z,100608.17
2019-02-02T20:29:22.782Z,100608.09
2019-02-02T20:31:53.257Z,100613.75
2019-02-02T20:34:23.542Z,100614.37
2019-02-02T20:36:53.959Z,100616.97
2019-02-02T20:39:24.681Z,100615.70
2019-02-02T20:41:55.019Z,100617.91
2019-02-02T20:44:25.332Z,100625.30
2019-02-02T20:46:55.677Z,100627.71
2019-02-02T20:49:25.950Z,100633.37
2019-02-02T20:51:56.226Z,100641.90
2019-02-02T20:54:26.853Z,100642.52
2019-02-02T20:56:57.142Z,100647.07
2019-02-02T20:59:27.395Z,100650.45
2019-02-02T21:01:57.770Z,100649.72
2019-02-02T21:04:28.339Z,100652.20
2019-02-02T21:06:59.108Z,100653.16
2019-02-02T21:09:29.765Z,100659.86
2019-02-02T21:12:00.058Z,100655.54
2019-02-02T21:14:30.350Z,100671.30
2019-02-02T21:17:01.226Z,100674.44
2019-02-02T21:19:31.533Z,100681.69
2019-02-02T21:22:01.837Z,100687.45
2019-02-02T21:24:32.153Z,100688.63
2019-02-02T21:27:02.441Z,100696.88
2019-02-02T21:29:32.719Z,100698.70
2019-02-02T21:32:03.192Z,100698.41
2019-02-02T21:34:33.503Z,100697.30
2019-02-02T21:37:03.839Z,100700.14
2019-02-02T21:39:34.194Z,100704.13
2019-02-02T21:42:04.503Z,100709.80
2019-02-02T21:44:42.949Z,100707.84
2019-02-02T21:47:06.888Z,100716.20
2019-02-02T21:49:37.212Z,100724.50
2019-02-02T21:52:07.543Z,100729.13
2019-02-02T21:54:38.018Z,100740.52
2019-02-02T21:57:08.614Z,100745.44
2019-02-02T21:59:38.913Z,100748.62
2019-02-02T22:02:09.313Z,100753.70
2019-02-02T22:04:41.436Z,100753.69
2019-02-02T22:07:11.705Z,100763.02
2019-02-02T22:09:44.057Z,100765.91
2019-02-02T22:12:14.092Z,100765.39
2019-02-02T22:14:44.477Z,100769.27
2019-02-02T22:17:14.833Z,100770.31
2019-02-02T22:19:45.691Z,100771.19
2019-02-02T22:22:16.022Z,100770.92
2019-02-02T22:24:46.364Z,100775.27
2019-02-02T22:27:16.710Z,100786.06
2019-02-02T22:29:47.020Z,100786.45
2019-02-02T22:32:17.826Z,100792.64
2019-02-02T22:34:48.164Z,100789.33
2019-02-02T22:37:18.447Z,100799.05
2019-02-02T22:39:48.919Z,100804.11
2019-02-02T22:42:19.560Z,100807.69
2019-02-02T22:44:50.191Z,100808.04
2019-02-02T22:47:20.539Z,100823.84
2019-02-02T22:49:50.859Z,100829.72
2019-02-02T22:52:21.438Z,100833.59
2019-02-02T22:54:51.817Z,100827.22
2019-02-02T22:57:22.538Z,100821.84
2019-02-02T22:59:52.828Z,100825.89
2019-02-02T23:02:24.207Z,100828.59
2019-02-02T23:05:44.558Z,100835.47
2019-02-02T23:09:00.794Z,100844.95
2019-02-02T23:12:21.619Z,100851.39
2019-02-02T23:15:18.752Z,100860.50
2019-02-02T23:17:49.346Z,100871.21
2019-02-02T23:20:19.596Z,100880.41
2019-02-02T23:22:49.953Z,100877.55
2019-02-02T23:25:20.430Z,100880.14
2019-02-02T23:27:50.711Z,100882.30
2019-02-02T23:30:21.028Z,100885.44
2019-02-02T23:32:51.379Z,100884.92
2019-02-02T23:35:21.574Z,100883.27
2019-02-02T23:37:51.894Z,100889.09
2019-02-02T23:40:22.183Z,100893.11
2019-02-02T23:42:53.003Z,100895.55
2019-02-02T23:45:23.290Z,100902.70
2019-02-02T23:47:53.601Z,100912.23
2019-02-02T23:50:23.876Z,100922.11
2019-02-02T23:52:54.190Z,100927.44
2019-02-02T23:55:24.738Z,100931.06
2019-02-02T23:57:55.054Z,100932.83
